createdAt,value
2019-02-18T00:01:25.069Z,229.13
2019-02-18T00:03:55.633Z,170.33
2019-02-18T00:06:26.218Z,156.23
2019-02-18T00:08:56.891Z,157.23
2019-02-18T00:11:27.359Z,189.10
2019-02-18T00:13:57.837Z,204.07
2019-02-18T00:16:28.385Z,154.80
2019-02-18T00:18:58.954Z,152.60
2019-02-18T00:21:29.915Z,173.17
2019-02-18T00:24:00.407Z,155.53
2019-02-18T00:26:31.005Z,153.53
2019-02-18T00:29:01.552Z,154.93
2019-02-18T00:31:32.198Z,163.07
2019-02-18T00:34:02.785Z,143.40
2019-02-18T00:36:33.324Z,161.20
2019-02-18T00:39:05.179Z,151.53
2019-02-18T00:41:36.542Z,137.57
2019-02-18T00:44:07.106Z,159.20
2019-02-18T00:46:37.564Z,156.70
2019-02-18T00:49:08.224Z,174.67
2019-02-18T00:51:38.870Z,173.27
2019-02-18T00:54:09.488Z,157.17
2019-02-18T00:56:40.302Z,126.03
2019-02-18T00:59:10.854Z,166.43
2019-02-18T01:01:42.282Z,157.30
2019-02-18T01:04:14.090Z,159.30
2019-02-18T01:06:44.601Z,135.77
2019-02-18T01:09:15.278Z,152.10
2019-02-18T01:11:45.880Z,170.50
2019-02-18T01:14:16.582Z,162.27
2019-02-18T01:16:47.116Z,172.37
2019-02-18T01:19:19.264Z,163.60
2019-02-18T01:21:50.039Z,162.37
2019-02-18T01:24:20.735Z,181.87
2019-02-18T01:26:51.609Z,182.77
2019-02-18T01:29:23.129Z,170.97
2019-02-18T01:31:53.865Z,168.30
2019-02-18T01:34:24.393Z,163.43
2019-02-18T01:36:55.173Z,174.10
2019-02-18T01:39:25.659Z,191.27
2019-02-18T01:41:56.289Z,179.40
2019-02-18T01:44:26.991Z,178.87
2019-02-18T01:46:57.543Z,190.67
2019-02-18T01:49:28.213Z,194.73
2019-02-18T01:51:58.679Z,206.70
2019-02-18T01:54:29.315Z,194.90
2019-02-18T01:56:59.890Z,193.30
2019-02-18T01:59:30.507Z,179.63
2019-02-18T02:02:00.977Z,195.13
2019-02-18T02:04:31.613Z,209.70
2019-02-18T02:07:02.381Z,218.83
2019-02-18T02:09:32.960Z,185.53
2019-02-18T02:12:03.802Z,205.57
2019-02-18T02:14:34.401Z,200.77
2019-02-18T02:17:04.995Z,196.57
2019-02-18T02:19:35.484Z,176.97
2019-02-18T02:22:06.036Z,186.87
2019-02-18T02:24:36.694Z,189.73
2019-02-18T02:27:07.475Z,183.53
2019-02-18T02:29:38.066Z,183.90
2019-02-18T02:32:10.240Z,184.87
2019-02-18T02:34:40.828Z,180.73
2019-02-18T02:37:11.292Z,173.37
2019-02-18T02:39:41.891Z,154.60
2019-02-18T02:42:12.352Z,191.43
2019-02-18T02:44:42.946Z,185.37
2019-02-18T02:47:13.457Z,188.10
2019-02-18T02:49:43.995Z,190.07
2019-02-18T02:52:14.728Z,197.70
2019-02-18T02:54:45.303Z,187.93
2019-02-18T02:57:16.082Z,191.13
2019-02-18T02:59:46.595Z,175.50
2019-02-18T03:02:17.248Z,175.70
2019-02-18T03:04:47.878Z,147.30
2019-02-18T03:07:18.451Z,161.27
2019-02-18T03:09:49.011Z,174.13
2019-02-18T03:12:19.566Z,180.27
2019-02-18T03:14:50.090Z,169.60
2019-02-18T03:17:20.664Z,166.60
2019-02-18T03:19:51.187Z,155.93
2019-02-18T03:22:21.753Z,148.10
2019-02-18T03:25:26.104Z,126.53
2019-02-18T03:28:09.584Z,162.77
2019-02-18T03:30:43.737Z,138.33
2019-02-18T03:33:16.455Z,156.50
2019-02-18T03:35:47.009Z,139.33
2019-02-18T03:38:17.666Z,112.80
2019-02-18T03:40:48.178Z,152.63
2019-02-18T03:43:18.665Z,148.93
2019-02-18T03:45:49.340Z,146.57
2019-02-18T03:48:19.969Z,153.93
2019-02-18T03:50:50.629Z,137.63
2019-02-18T03:53:21.150Z,144.10
2019-02-18T03:55:51.713Z,159.10
2019-02-18T03:58:22.494Z,129.67
2019-02-18T04:00:53.195Z,148.03
2019-02-18T04:03:23.872Z,131.47
2019-02-18T04:05:54.450Z,126.43
2019-02-18T04:08:25.189Z,140.37
2019-02-18T04:10:55.814Z,143.27
2019-02-18T04:13:26.374Z,130.37
2019-02-18T04:15:57.328Z,132.37
2019-02-18T04:18:27.853Z,138.70
2019-02-18T04:20:58.687Z,128.03
2019-02-18T04:23:29.158Z,136.07
2019-02-18T04:25:59.769Z,135.23
2019-02-18T04:28:30.534Z,137.70
2019-02-18T04:31:01.130Z,123.50
2019-02-18T04:33:31.806Z,123.07
2019-02-18T04:36:02.480Z,135.03
2019-02-18T04:38:33.126Z,116.23
2019-02-18T04:41:03.708Z,117.70
2019-02-18T04:43:34.409Z,110.87
2019-02-18T04:46:05.105Z,127.07
2019-02-18T04:48:35.713Z,132.17
2019-02-18T04:51:06.317Z,117.20
2019-02-18T04:53:37.165Z,133.57
2019-02-18T04:56:07.755Z,112.20
2019-02-18T04:58:38.359Z,115.50
2019-02-18T05:01:08.994Z,136.03
2019-02-18T05:03:39.561Z,132.70
2019-02-18T05:06:10.378Z,142.57
2019-02-18T05:08:41.054Z,150.77
2019-02-18T05:11:11.887Z,145.67
2019-02-18T05:13:42.508Z,126.53
2019-02-18T05:16:14.014Z,152.20
2019-02-18T05:18:44.693Z,167.93
2019-02-18T05:21:15.339Z,153.37
2019-02-18T05:23:45.891Z,178.63
2019-02-18T05:26:16.808Z,154.40
2019-02-18T05:28:47.510Z,128.27
2019-02-18T05:31:18.112Z,156.60
2019-02-18T05:33:48.685Z,140.97
2019-02-18T05:36:19.354Z,167.73
2019-02-18T05:38:49.986Z,150.87
2019-02-18T05:41:20.542Z,139.07
2019-02-18T05:43:51.156Z,111.17
2019-02-18T05:46:21.731Z,139.53
2019-02-18T05:48:52.391Z,129.77
2019-02-18T05:51:22.990Z,142.07
2019-02-18T05:53:53.753Z,125.97
2019-02-18T05:56:24.971Z,131.87
2019-02-18T05:58:55.563Z,115.97
2019-02-18T06:01:26.410Z,141.67
2019-02-18T06:04:00.002Z,131.23
2019-02-18T06:06:29.321Z,129.63
2019-02-18T06:09:00.118Z,155.07
2019-02-18T06:11:30.683Z,128.80
2019-02-18T06:14:01.217Z,138.60
2019-02-18T06:16:32.061Z,117.00
2019-02-18T06:19:02.773Z,124.07
2019-02-18T06:21:33.434Z,138.57
2019-02-18T06:24:03.966Z,132.90
2019-02-18T06:26:34.549Z,124.60
2019-02-18T06:29:05.457Z,133.23
2019-02-18T06:31:38.566Z,119.43
2019-02-18T06:34:09.262Z,138.27
2019-02-18T06:36:39.898Z,137.27
2019-02-18T06:39:10.408Z,114.43
2019-02-18T06:41:41.317Z,129.27
2019-02-18T06:44:11.812Z,163.00
2019-02-18T06:46:59.156Z,121.23
2019-02-18T06:49:30.356Z,117.63
2019-02-18T06:52:00.820Z,119.13
2019-02-18T06:54:31.374Z,118.53
2019-02-18T06:57:20.790Z,105.67
2019-02-18T07:00:02.943Z,99.53
2019-02-18T07:02:39.104Z,125.33
2019-02-18T07:05:18.716Z,126.87
2019-02-18T07:08:20.367Z,119.60
2019-02-18T07:11:00.200Z,118.50
2019-02-18T07:13:30.746Z,139.27
2019-02-18T07:16:01.515Z,141.47
2019-02-18T07:18:32.155Z,132.27
2019-02-18T07:21:02.825Z,124.67
2019-02-18T07:23:34.463Z,132.13
2019-02-18T07:26:04.950Z,114.23
2019-02-18T07:28:35.617Z,133.07
2019-02-18T07:31:06.237Z,129.30
2019-02-18T07:33:36.721Z,147.17
2019-02-18T07:36:07.530Z,142.80
2019-02-18T07:38:38.072Z,128.77
2019-02-18T07:41:08.817Z,131.03
2019-02-18T07:43:39.376Z,167.10
2019-02-18T07:46:10.086Z,132.47
2019-02-18T07:48:40.678Z,138.73
2019-02-18T07:51:11.484Z,134.57
2019-02-18T07:53:42.048Z,134.10
2019-02-18T07:56:12.672Z,128.23
2019-02-18T07:58:43.223Z,129.93
2019-02-18T08:01:13.857Z,141.20
2019-02-18T08:03:44.442Z,129.23
2019-02-18T08:06:14.994Z,128.47
2019-02-18T08:08:45.489Z,129.00
2019-02-18T08:11:16.012Z,134.70
2019-02-18T08:13:46.547Z,120.27
2019-02-18T08:16:17.245Z,134.77
2019-02-18T08:18:49.547Z,155.77
2019-02-18T08:21:20.286Z,140.53
2019-02-18T08:23:59.688Z,146.50
2019-02-18T08:26:23.206Z,150.13
2019-02-18T08:28:54.081Z,154.27
2019-02-18T08:31:24.625Z,150.70
2019-02-18T08:33:55.536Z,158.80
2019-02-18T08:36:27.883Z,153.37
2019-02-18T08:38:59.323Z,152.87
2019-02-18T08:41:30.641Z,178.07
2019-02-18T08:44:01.345Z,168.77
2019-02-18T08:46:31.927Z,168.27
2019-02-18T08:49:02.644Z,142.67
2019-02-18T08:51:33.114Z,139.33
2019-02-18T08:54:03.849Z,147.43
2019-02-18T08:56:34.407Z,144.50
2019-02-18T08:59:05.005Z,135.00
2019-02-18T09:01:35.691Z,126.60
2019-02-18T09:04:06.625Z,139.97
2019-02-18T09:06:37.849Z,132.43
2019-02-18T09:09:08.560Z,118.13
2019-02-18T09:11:39.264Z,113.60
2019-02-18T09:14:09.843Z,117.70
2019-02-18T09:16:40.425Z,107.60
2019-02-18T09:19:10.932Z,117.63
2019-02-18T09:21:41.564Z,119.37
2019-02-18T09:24:21.952Z,108.43
2019-02-18T09:26:52.572Z,101.17
2019-02-18T09:29:23.451Z,106.33
2019-02-18T09:31:54.308Z,94.70
2019-02-18T09:34:24.817Z,93.53
2019-02-18T09:36:56.245Z,95.47
2019-02-18T09:39:31.232Z,81.63
2019-02-18T09:41:59.183Z,77.43
2019-02-18T09:44:29.754Z,86.70
2019-02-18T09:47:00.881Z,96.70
2019-02-18T09:49:31.403Z,82.20
2019-02-18T09:52:01.983Z,80.27
2019-02-18T09:54:32.613Z,79.77
2019-02-18T09:57:03.274Z,82.00
2019-02-18T09:59:33.908Z,86.13
2019-02-18T10:02:04.739Z,76.57
2019-02-18T10:04:35.658Z,65.10
2019-02-18T10:07:06.162Z,70.40
2019-02-18T10:09:36.761Z,70.70
2019-02-18T10:12:17.759Z,74.20
2019-02-18T10:14:39.829Z,73.10
2019-02-18T10:17:10.371Z,81.80
2019-02-18T10:19:42.998Z,71.63
2019-02-18T10:22:13.337Z,67.87
2019-02-18T10:24:50.738Z,68.90
2019-02-18T10:27:18.931Z,65.00
2019-02-18T10:29:49.661Z,82.60
2019-02-18T10:32:20.500Z,100.63
2019-02-18T10:34:51.637Z,96.57
2019-02-18T10:37:22.179Z,85.27
2019-02-18T10:39:52.856Z,93.47
2019-02-18T10:42:23.498Z,98.40
2019-02-18T10:44:54.076Z,102.30
2019-02-18T10:47:24.962Z,102.30
2019-02-18T10:49:55.568Z,98.40
2019-02-18T10:52:26.547Z,92.30
2019-02-18T10:54:57.428Z,99.00
2019-02-18T10:57:28.087Z,107.40
2019-02-18T10:59:59.372Z,93.77
2019-02-18T11:02:30.058Z,89.47
2019-02-18T11:05:01.718Z,84.47
2019-02-18T11:07:32.400Z,105.20
2019-02-18T11:10:03.087Z,86.60
2019-02-18T11:12:33.682Z,89.10
2019-02-18T11:15:04.325Z,73.73
2019-02-18T11:17:38.852Z,80.53
2019-02-18T11:20:09.137Z,89.83
2019-02-18T11:22:39.657Z,79.60
2019-02-18T11:25:10.697Z,81.70
2019-02-18T11:27:41.407Z,71.00
2019-02-18T11:30:13.672Z,59.77
2019-02-18T11:32:44.256Z,67.43
2019-02-18T11:35:14.759Z,60.07
2019-02-18T11:37:46.341Z,67.73
2019-02-18T11:40:16.896Z,54.83
2019-02-18T11:42:47.461Z,45.77
2019-02-18T11:45:17.973Z,41.07
2019-02-18T11:47:48.671Z,45.70
2019-02-18T11:50:19.271Z,34.50
2019-02-18T11:52:49.837Z,41.50
2019-02-18T11:55:20.434Z,32.80
2019-02-18T11:57:50.920Z,57.63
2019-02-18T12:00:21.459Z,46.23
2019-02-18T12:03:02.447Z,43.17
2019-02-18T12:05:24.339Z,36.20
2019-02-18T12:07:54.996Z,37.93
2019-02-18T12:10:25.813Z,31.50
2019-02-18T12:12:56.519Z,31.47
2019-02-18T12:15:27.108Z,39.37
2019-02-18T12:17:57.739Z,100.03
2019-02-18T12:20:28.339Z,52.73
2019-02-18T12:22:59.022Z,41.07
2019-02-18T12:25:29.739Z,33.00
2019-02-18T12:28:08.222Z,30.60
2019-02-18T12:30:39.195Z,51.07
2019-02-18T12:33:10.360Z,25.93
2019-02-18T12:35:41.178Z,29.67
2019-02-18T12:38:11.736Z,25.93
2019-02-18T12:40:42.742Z,22.33
2019-02-18T12:43:13.679Z,19.67
2019-02-18T12:45:44.651Z,36.53
2019-02-18T12:48:15.366Z,17.43
2019-02-18T12:50:46.628Z,18.70
2019-02-18T12:53:17.547Z,20.57
2019-02-18T12:55:48.187Z,23.00
2019-02-18T12:58:19.216Z,18.27
2019-02-18T13:00:50.420Z,15.80
2019-02-18T13:03:21.079Z,22.10
2019-02-18T13:05:51.938Z,18.90
2019-02-18T13:08:25.052Z,30.70
2019-02-18T13:10:55.122Z,27.03
2019-02-18T13:13:25.908Z,20.80
2019-02-18T13:15:56.893Z,32.13
2019-02-18T13:18:27.963Z,32.90
2019-02-18T13:20:58.736Z,31.40
2019-02-18T13:23:29.565Z,30.37
2019-02-18T13:26:00.312Z,23.10
2019-02-18T13:28:31.463Z,19.77
2019-02-18T13:31:01.916Z,25.93
2019-02-18T13:33:34.393Z,24.87
2019-02-18T13:36:10.531Z,29.37
2019-02-18T13:38:41.441Z,23.87
2019-02-18T13:41:12.246Z,25.40
2019-02-18T13:43:44.177Z,25.83
2019-02-18T13:46:15.480Z,19.23
2019-02-18T13:48:45.992Z,47.93
2019-02-18T13:51:24.047Z,22.57
2019-02-18T13:53:49.372Z,21.10
2019-02-18T13:56:20.406Z,23.77
2019-02-18T13:58:51.323Z,26.10
2019-02-18T14:01:22.004Z,23.93
2019-02-18T14:03:53.094Z,23.73
2019-02-18T14:06:23.600Z,35.67
2019-02-18T14:08:54.679Z,23.57
2019-02-18T14:11:25.423Z,20.50
2019-02-18T14:13:57.313Z,27.73
2019-02-18T14:16:27.965Z,29.80
2019-02-18T14:18:58.675Z,22.97
2019-02-18T14:21:29.689Z,40.93
2019-02-18T14:24:00.638Z,55.17
2019-02-18T14:26:33.122Z,39.90
2019-02-18T14:29:03.959Z,32.27
2019-02-18T14:31:34.832Z,21.57
2019-02-18T14:34:07.090Z,25.57
2019-02-18T14:36:38.045Z,30.77
2019-02-18T14:39:19.187Z,26.70
2019-02-18T14:41:50.460Z,32.67
2019-02-18T14:44:21.372Z,35.30
2019-02-18T14:46:52.489Z,38.20
2019-02-18T14:49:23.977Z,33.70
2019-02-18T14:51:54.875Z,35.23
2019-02-18T14:54:25.981Z,24.50
2019-02-18T14:56:56.946Z,85.93
2019-02-18T14:59:27.468Z,36.30
2019-02-18T15:01:58.407Z,35.33
2019-02-18T15:04:29.398Z,29.63
2019-02-18T15:07:00.498Z,36.90
2019-02-18T15:09:31.250Z,56.97
2019-02-18T15:12:02.058Z,42.80
2019-02-18T15:14:32.749Z,45.37
2019-02-18T15:17:03.959Z,43.23
2019-02-18T15:19:34.456Z,28.70
2019-02-18T15:22:05.148Z,44.53
2019-02-18T15:24:35.865Z,66.47
2019-02-18T15:27:06.792Z,58.23
2019-02-18T15:29:37.534Z,37.67
2019-02-18T15:32:08.529Z,34.73
2019-02-18T15:34:39.561Z,51.90
2019-02-18T15:37:10.426Z,44.80
2019-02-18T15:39:41.635Z,41.27
2019-02-18T15:42:13.127Z,45.80
2019-02-18T15:44:44.100Z,35.87
2019-02-18T15:47:15.299Z,51.30
2019-02-18T15:49:46.980Z,41.10
2019-02-18T15:52:18.301Z,40.37
2019-02-18T15:54:49.372Z,41.23
2019-02-18T15:57:21.889Z,86.90
2019-02-18T15:59:52.609Z,56.10
2019-02-18T16:02:25.029Z,40.37
2019-02-18T16:04:55.789Z,48.27
2019-02-18T16:07:26.949Z,51.67
2019-02-18T16:09:57.661Z,47.73
2019-02-18T16:12:28.354Z,46.70
2019-02-18T16:14:59.189Z,50.20
2019-02-18T16:17:29.855Z,40.43
2019-02-18T16:20:00.716Z,44.37
2019-02-18T16:22:31.648Z,43.90
2019-02-18T16:25:02.359Z,50.57
2019-02-18T16:27:33.516Z,54.80
2019-02-18T16:30:04.647Z,116.40
2019-02-18T16:32:35.641Z,56.73
2019-02-18T16:35:06.664Z,64.97
2019-02-18T16:37:38.094Z,50.20
2019-02-18T16:40:11.024Z,58.93
2019-02-18T16:42:41.944Z,69.57
2019-02-18T16:45:13.620Z,56.57
2019-02-18T16:47:44.866Z,53.73
2019-02-18T16:50:15.611Z,59.83
2019-02-18T16:52:46.630Z,59.27
2019-02-18T16:55:17.251Z,68.03
2019-02-18T16:57:47.848Z,73.60
2019-02-18T17:00:37.815Z,56.93
2019-02-18T17:03:08.659Z,59.97
2019-02-18T17:05:39.639Z,66.50
2019-02-18T17:08:11.777Z,63.97
2019-02-18T17:10:43.305Z,68.57
2019-02-18T17:13:14.052Z,65.77
2019-02-18T17:15:45.180Z,71.77
2019-02-18T17:18:16.429Z,70.50
2019-02-18T17:20:47.547Z,61.23
2019-02-18T17:23:18.521Z,70.53
2019-02-18T17:25:49.515Z,79.40
2019-02-18T17:28:20.321Z,84.90
2019-02-18T17:30:51.713Z,96.77
2019-02-18T17:33:22.457Z,101.17
2019-02-18T17:35:53.516Z,79.27
2019-02-18T17:38:24.412Z,83.77
2019-02-18T17:40:56.627Z,99.07
2019-02-18T17:43:27.807Z,89.07
2019-02-18T17:45:58.977Z,81.33
2019-02-18T17:48:30.520Z,75.77
2019-02-18T17:51:02.212Z,97.87
2019-02-18T17:53:33.188Z,119.47
2019-02-18T17:56:05.669Z,121.87
2019-02-18T17:58:36.515Z,118.47
2019-02-18T18:01:07.592Z,112.93
2019-02-18T18:03:38.528Z,363.20
2019-02-18T18:06:09.399Z,139.40
2019-02-18T18:08:40.238Z,138.70
2019-02-18T18:11:11.085Z,119.00
2019-02-18T18:13:41.730Z,132.10
2019-02-18T18:16:12.884Z,141.03
2019-02-18T18:18:43.812Z,141.67
2019-02-18T18:21:15.080Z,131.40
2019-02-18T18:23:45.896Z,124.50
2019-02-18T18:26:17.021Z,310.00
2019-02-18T18:28:47.961Z,170.73
2019-02-18T18:31:19.654Z,147.70
2019-02-18T18:33:50.621Z,133.93
2019-02-18T18:36:22.492Z,142.27
2019-02-18T18:38:53.346Z,153.47
2019-02-18T18:41:24.214Z,135.87
2019-02-18T18:43:55.155Z,134.57
2019-02-18T18:46:26.270Z,139.07
2019-02-18T18:48:57.215Z,278.40
2019-02-18T18:51:28.160Z,175.53
2019-02-18T18:53:59.293Z,128.87
2019-02-18T18:56:30.134Z,140.33
2019-02-18T18:59:01.199Z,218.80
2019-02-18T19:01:33.821Z,146.43
2019-02-18T19:04:04.835Z,139.50
2019-02-18T19:06:36.069Z,139.57
2019-02-18T19:09:07.489Z,132.00
2019-02-18T19:11:38.701Z,145.90
2019-02-18T19:14:09.605Z,126.40
2019-02-18T19:16:40.842Z,141.20
2019-02-18T19:19:11.858Z,123.97
2019-02-18T19:21:43.111Z,123.40
2019-02-18T19:24:13.995Z,141.97
2019-02-18T19:26:44.929Z,140.80
2019-02-18T19:29:16.142Z,157.20
2019-02-18T19:31:47.286Z,153.63
2019-02-18T19:34:18.177Z,169.73
2019-02-18T19:36:49.248Z,162.97
2019-02-18T19:39:20.007Z,146.30
2019-02-18T19:41:50.927Z,154.90
2019-02-18T19:44:21.921Z,152.80
2019-02-18T19:46:54.272Z,146.63
2019-02-18T19:49:25.940Z,173.03
2019-02-18T19:51:56.691Z,184.17
2019-02-18T19:54:27.919Z,178.20
2019-02-18T19:56:58.735Z,181.33
2019-02-18T19:59:29.531Z,184.53
2019-02-18T20:02:00.106Z,157.93
2019-02-18T20:04:31.003Z,172.03
2019-02-18T20:07:01.754Z,196.60
2019-02-18T20:09:32.805Z,160.90
2019-02-18T20:12:03.802Z,176.17
2019-02-18T20:14:34.698Z,182.83
2019-02-18T20:17:06.831Z,173.10
2019-02-18T20:19:37.703Z,161.43
2019-02-18T20:22:08.834Z,170.10
2019-02-18T20:24:39.858Z,174.50
2019-02-18T20:27:10.625Z,177.70
2019-02-18T20:29:41.616Z,186.43
2019-02-18T20:32:12.575Z,185.30
2019-02-18T20:34:43.552Z,180.60
2019-02-18T20:37:14.969Z,202.90
2019-02-18T20:39:45.881Z,198.60
2019-02-18T20:42:17.133Z,198.57
2019-02-18T20:44:48.132Z,197.93
2019-02-18T20:47:19.241Z,185.83
2019-02-18T20:49:49.985Z,211.23
2019-02-18T20:52:21.065Z,214.07
2019-02-18T20:54:52.394Z,202.07
2019-02-18T20:57:23.140Z,205.20
2019-02-18T20:59:54.397Z,208.30
2019-02-18T21:02:25.404Z,229.50
2019-02-18T21:04:56.189Z,233.80
2019-02-18T21:07:27.023Z,187.57
2019-02-18T21:09:57.726Z,196.13
2019-02-18T21:12:29.823Z,178.90
2019-02-18T21:15:00.565Z,186.67
2019-02-18T21:17:31.720Z,175.47
2019-02-18T21:20:02.576Z,213.70
2019-02-18T21:22:33.461Z,217.27
2019-02-18T21:25:04.777Z,189.47
2019-02-18T21:27:35.561Z,301.77
2019-02-18T21:30:07.340Z,276.00
2019-02-18T21:32:39.979Z,247.30
2019-02-18T21:35:12.111Z,256.80
2019-02-18T21:37:43.286Z,231.17
2019-02-18T21:40:14.543Z,245.47
2019-02-18T21:42:45.431Z,233.57
2019-02-18T21:45:16.267Z,230.93
2019-02-18T21:47:47.415Z,230.37
2019-02-18T21:50:19.345Z,217.93
2019-02-18T21:52:50.544Z,211.63
2019-02-18T21:55:21.483Z,214.67
2019-02-18T21:57:52.377Z,196.97
2019-02-18T22:00:24.774Z,203.60
2019-02-18T22:02:56.222Z,171.70
2019-02-18T22:05:27.925Z,217.83
2019-02-18T22:08:09.635Z,189.57
2019-02-18T22:10:40.948Z,212.77
2019-02-18T22:13:11.694Z,206.93
2019-02-18T22:15:42.410Z,206.77
2019-02-18T22:18:13.425Z,239.37
2019-02-18T22:20:44.068Z,207.53
2019-02-18T22:23:14.833Z,177.00
2019-02-18T22:25:45.813Z,170.73
2019-02-18T22:28:16.566Z,174.87
2019-02-18T22:30:47.859Z,143.10
2019-02-18T22:33:18.898Z,181.83
2019-02-18T22:35:49.834Z,163.50
2019-02-18T22:38:20.808Z,180.93
2019-02-18T22:40:51.607Z,195.23
2019-02-18T22:43:22.550Z,175.83
2019-02-18T22:45:55.017Z,193.77
2019-02-18T22:48:25.889Z,190.17
2019-02-18T22:50:56.415Z,211.83
2019-02-18T22:53:28.857Z,222.53
2019-02-18T22:55:59.848Z,209.57
2019-02-18T22:58:30.432Z,208.57
2019-02-18T23:01:03.035Z,223.10
2019-02-18T23:03:34.159Z,246.73
2019-02-18T23:06:05.154Z,208.80
2019-02-18T23:08:35.835Z,227.47
2019-02-18T23:11:06.784Z,235.10
2019-02-18T23:13:37.497Z,210.13
2019-02-18T23:16:08.321Z,224.90
2019-02-18T23:18:39.390Z,244.63
2019-02-18T23:21:10.383Z,233.60
2019-02-18T23:23:41.754Z,236.30
2019-02-18T23:26:12.804Z,263.90
2019-02-18T23:28:44.015Z,242.37
2019-02-18T23:31:15.411Z,276.40
2019-02-18T23:33:46.104Z,240.00
2019-02-18T23:36:16.680Z,213.73
2019-02-18T23:38:47.898Z,208.70
2019-02-18T23:41:18.614Z,177.23
2019-02-18T23:43:49.331Z,206.17
2019-02-18T23:46:20.158Z,172.00
2019-02-18T23:48:50.660Z,169.37
2019-02-18T23:51:21.340Z,169.33
2019-02-18T23:53:51.928Z,190.67
2019-02-18T23:56:23.049Z,170.97
2019-02-18T23:58:53.899Z,203.07
